Olivera, Argentina
Current Conditions -  °F | °C
As of 2:00 AM on Thursday 18 Dec 2014 (Local Time) from SADF Reporting Station
Clear Clear  
Wind Chill: 20°   Ceiling: Unl
Heat Index: 20°   Visibility: 6mi
Dew Point: 17°   Wind: 3mph
Humidity: 83%   Direction: 350°N
Pressure: 29.88"   Gusts: NA
Location:  34.63°S, 59.25°W
Report Text: SADF 180500Z 35003KT CAVOK 20/17 Q1012
Loading
Personal Weather Stations






























Interactive Weather Map New forecast layout! Learn more

10-Day Weather Forecast

Advertisements
Track Severe Weather on mobile